createdAt,value
2023-05-14T00:01:23.000Z,281.02
2023-05-14T00:02:50.000Z,281.02
2023-05-14T00:04:56.000Z,280.96
2023-05-14T00:06:22.000Z,280.96
2023-05-14T00:08:28.000Z,280.9
2023-05-14T00:09:55.000Z,280.96
2023-05-14T00:12:01.000Z,280.9
2023-05-14T00:13:28.000Z,280.84
2023-05-14T00:15:34.000Z,280.84
2023-05-14T00:17:00.000Z,280.84
2023-05-14T00:19:06.000Z,280.84
2023-05-14T00:20:33.000Z,280.84
2023-05-14T00:22:39.000Z,280.96
2023-05-14T00:24:06.000Z,280.9
2023-05-14T00:26:12.000Z,280.77
2023-05-14T00:29:03.000Z,280.65
2023-05-14T00:30:29.000Z,280.59
2023-05-14T00:32:35.000Z,280.46
2023-05-14T00:34:02.000Z,280.46
2023-05-14T00:36:08.000Z,280.46
2023-05-14T00:37:35.000Z,280.46
2023-05-14T00:39:41.000Z,280.52
2023-05-14T00:41:07.000Z,280.46
2023-05-14T00:43:13.000Z,280.52
2023-05-14T00:44:40.000Z,280.52
2023-05-14T00:46:46.000Z,280.65
2023-05-14T00:48:12.000Z,280.52
2023-05-14T00:50:19.000Z,280.4
2023-05-14T00:51:45.000Z,280.27
2023-05-14T00:53:52.000Z,280.21
2023-05-14T00:55:18.000Z,280.15
2023-05-14T00:57:25.000Z,280.09
2023-05-14T00:58:51.000Z,280.15
2023-05-14T01:00:57.000Z,280.15
2023-05-14T01:02:24.000Z,280.15
2023-05-14T01:04:30.000Z,280.27
2023-05-14T01:07:21.000Z,280.21
2023-05-14T01:08:48.000Z,280.27
2023-05-14T01:10:54.000Z,280.09
2023-05-14T01:12:20.000Z,280.15
2023-05-14T01:14:26.000Z,280.21
2023-05-14T01:15:53.000Z,280.21
2023-05-14T01:17:59.000Z,280.34
2023-05-14T01:19:26.000Z,280.34
2023-05-14T01:21:32.000Z,280.21
2023-05-14T01:22:58.000Z,280.15
2023-05-14T01:25:04.000Z,280.02
2023-05-14T01:26:31.000Z,280.02
2023-05-14T01:28:37.000Z,279.96
2023-05-14T01:30:03.000Z,280.02
2023-05-14T01:32:10.000Z,280.02
2023-05-14T01:33:36.000Z,279.96
2023-05-14T01:35:42.000Z,279.9
2023-05-14T01:37:09.000Z,279.9
2023-05-14T01:39:15.000Z,279.84
2023-05-14T01:40:42.000Z,279.77
2023-05-14T01:42:48.000Z,279.71
2023-05-14T01:45:39.000Z,279.71
2023-05-14T01:47:05.000Z,279.65
2023-05-14T01:49:12.000Z,279.65
2023-05-14T01:50:38.000Z,279.59
2023-05-14T01:52:44.000Z,279.52
2023-05-14T01:54:11.000Z,279.52
2023-05-14T01:56:17.000Z,279.59
2023-05-14T01:57:43.000Z,279.52
2023-05-14T01:59:49.000Z,279.4
2023-05-14T02:01:16.000Z,279.4
2023-05-14T02:03:22.000Z,279.4
2023-05-14T02:04:48.000Z,279.34
2023-05-14T02:06:54.000Z,279.34
2023-05-14T02:08:21.000Z,279.34
2023-05-14T02:10:27.000Z,279.34
2023-05-14T02:11:54.000Z,279.34
2023-05-14T02:14:00.000Z,279.34
2023-05-14T02:15:26.000Z,279.34
2023-05-14T02:17:32.000Z,279.34
2023-05-14T02:18:59.000Z,279.34
2023-05-14T02:21:05.000Z,279.27
2023-05-14T02:23:56.000Z,279.27
2023-05-14T02:25:23.000Z,279.27
2023-05-14T02:27:29.000Z,279.27
2023-05-14T02:28:56.000Z,279.27
2023-05-14T02:31:02.000Z,279.27
2023-05-14T02:32:29.000Z,279.34
2023-05-14T02:34:35.000Z,279.34
2023-05-14T02:36:01.000Z,279.21
2023-05-14T02:38:07.000Z,279.09
2023-05-14T02:39:34.000Z,279.02
2023-05-14T02:41:40.000Z,279.02
2023-05-14T02:43:06.000Z,279.09
2023-05-14T02:45:13.000Z,279.02
2023-05-14T02:46:39.000Z,279.02
2023-05-14T02:48:45.000Z,279.09
2023-05-14T02:50:12.000Z,278.96
2023-05-14T02:52:18.000Z,279.02
2023-05-14T02:53:44.000Z,279.09
2023-05-14T02:55:51.000Z,279.15
2023-05-14T02:57:17.000Z,279.21
2023-05-14T02:59:23.000Z,279.09
2023-05-14T03:02:15.000Z,279.02
2023-05-14T03:03:42.000Z,279.02
2023-05-14T03:05:49.000Z,279.09
2023-05-14T03:07:15.000Z,279.02
2023-05-14T03:09:21.000Z,279.09
2023-05-14T03:10:48.000Z,279.09
2023-05-14T03:12:54.000Z,279.09
2023-05-14T03:14:20.000Z,279.09
2023-05-14T03:16:26.000Z,279.09
2023-05-14T03:17:53.000Z,279.02
2023-05-14T03:19:59.000Z,279.02
2023-05-14T03:21:26.000Z,279.02
2023-05-14T03:23:32.000Z,279.02
2023-05-14T03:24:59.000Z,279.09
2023-05-14T03:27:05.000Z,279.02
2023-05-14T03:28:31.000Z,278.96
2023-05-14T03:30:37.000Z,279.02
2023-05-14T03:32:04.000Z,279.02
2023-05-14T03:34:10.000Z,279.02
2023-05-14T03:35:37.000Z,279.09
2023-05-14T03:37:43.000Z,279.09
2023-05-14T03:40:34.000Z,279.21
2023-05-14T03:42:00.000Z,279.21
2023-05-14T03:44:07.000Z,279.21
2023-05-14T03:45:33.000Z,279.27
2023-05-14T03:47:39.000Z,279.21
2023-05-14T03:49:06.000Z,279.21
2023-05-14T03:51:12.000Z,279.34
2023-05-14T03:52:39.000Z,279.4
2023-05-14T03:54:45.000Z,279.4
2023-05-14T03:56:11.000Z,279.46
2023-05-14T03:58:17.000Z,279.46
2023-05-14T03:59:44.000Z,279.46
2023-05-14T04:01:50.000Z,279.4
2023-05-14T04:03:17.000Z,279.46
2023-05-14T04:05:23.000Z,279.46
2023-05-14T04:06:49.000Z,279.46
2023-05-14T04:08:56.000Z,279.46
2023-05-14T04:10:22.000Z,279.52
2023-05-14T04:12:28.000Z,279.46
2023-05-14T04:13:55.000Z,279.52
2023-05-14T04:16:01.000Z,279.59
2023-05-14T04:18:52.000Z,279.71
2023-05-14T04:20:19.000Z,279.77
2023-05-14T04:22:25.000Z,279.84
2023-05-14T04:23:51.000Z,279.84
2023-05-14T04:25:58.000Z,279.9
2023-05-14T04:27:24.000Z,279.9
2023-05-14T04:29:30.000Z,279.9
2023-05-14T04:30:57.000Z,279.96
2023-05-14T04:33:03.000Z,280.02
2023-05-14T04:34:30.000Z,280.02
2023-05-14T04:36:36.000Z,280.09
2023-05-14T04:38:02.000Z,280.15
2023-05-14T04:40:08.000Z,280.15
2023-05-14T04:41:35.000Z,280.21
2023-05-14T04:43:41.000Z,280.21
2023-05-14T04:45:08.000Z,280.21
2023-05-14T04:47:14.000Z,280.27
2023-05-14T04:48:40.000Z,280.34
2023-05-14T04:50:46.000Z,280.34
2023-05-14T04:52:13.000Z,280.4
2023-05-14T04:54:19.000Z,280.46
2023-05-14T04:57:10.000Z,280.59
2023-05-14T04:58:37.000Z,280.65
2023-05-14T05:00:43.000Z,280.71
2023-05-14T05:02:09.000Z,280.65
2023-05-14T05:04:15.000Z,280.71
2023-05-14T05:05:42.000Z,280.77
2023-05-14T05:07:48.000Z,280.84
2023-05-14T05:09:14.000Z,280.9
2023-05-14T05:11:21.000Z,280.96
2023-05-14T05:12:47.000Z,280.96
2023-05-14T05:14:53.000Z,280.96
2023-05-14T05:16:20.000Z,281.09
2023-05-14T05:18:26.000Z,281.15
2023-05-14T05:19:53.000Z,281.15
2023-05-14T05:21:59.000Z,281.21
2023-05-14T05:23:25.000Z,281.27
2023-05-14T05:25:31.000Z,281.34
2023-05-14T05:26:58.000Z,281.34
2023-05-14T05:29:04.000Z,281.4
2023-05-14T05:30:31.000Z,281.52
2023-05-14T05:32:37.000Z,281.52
2023-05-14T05:35:28.000Z,281.71
2023-05-14T05:36:54.000Z,281.71
2023-05-14T05:39:00.000Z,281.77
2023-05-14T05:40:27.000Z,281.77
2023-05-14T05:42:33.000Z,281.9
2023-05-14T05:43:59.000Z,282.02
2023-05-14T05:46:06.000Z,282.09
2023-05-14T05:47:32.000Z,282.21
2023-05-14T05:49:38.000Z,282.21
2023-05-14T05:51:05.000Z,282.27
2023-05-14T05:53:11.000Z,282.34
2023-05-14T05:54:38.000Z,282.46
2023-05-14T05:56:44.000Z,282.52
2023-05-14T05:58:10.000Z,282.65
2023-05-14T06:00:16.000Z,282.77
2023-05-14T06:01:43.000Z,282.84
2023-05-14T06:03:49.000Z,282.96
2023-05-14T06:05:16.000Z,283.02
2023-05-14T06:07:22.000Z,283.02
2023-05-14T06:08:48.000Z,283.09
2023-05-14T06:10:54.000Z,283.21
2023-05-14T06:13:45.000Z,283.27
2023-05-14T06:15:12.000Z,283.34
2023-05-14T06:17:18.000Z,283.4
2023-05-14T06:18:45.000Z,283.52
2023-05-14T06:20:51.000Z,283.71
2023-05-14T06:22:17.000Z,283.71
2023-05-14T06:24:23.000Z,283.71
2023-05-14T06:25:50.000Z,283.77
2023-05-14T06:27:56.000Z,283.77
2023-05-14T06:29:23.000Z,283.84
2023-05-14T06:31:29.000Z,283.9
2023-05-14T06:32:55.000Z,284.15
2023-05-14T06:35:01.000Z,284.21
2023-05-14T06:36:28.000Z,284.34
2023-05-14T06:38:34.000Z,284.46
2023-05-14T06:40:01.000Z,284.59
2023-05-14T06:42:07.000Z,284.65
2023-05-14T06:43:33.000Z,284.71
2023-05-14T06:45:39.000Z,284.84
2023-05-14T06:47:06.000Z,284.96
2023-05-14T06:49:12.000Z,285.15
2023-05-14T06:52:03.000Z,285.21
2023-05-14T06:53:30.000Z,285.34
2023-05-14T06:55:36.000Z,285.4
2023-05-14T06:57:02.000Z,285.59
2023-05-14T06:59:09.000Z,285.46
2023-05-14T07:00:35.000Z,285.4
2023-05-14T07:02:41.000Z,285.52
2023-05-14T07:04:08.000Z,285.59
2023-05-14T07:06:14.000Z,285.77
2023-05-14T07:07:40.000Z,285.71
2023-05-14T07:09:47.000Z,285.84
2023-05-14T07:11:13.000Z,285.71
2023-05-14T07:13:19.000Z,285.96
2023-05-14T07:14:46.000Z,286.15
2023-05-14T07:16:52.000Z,286.02
2023-05-14T07:18:19.000Z,286.02
2023-05-14T07:20:25.000Z,286.15
2023-05-14T07:21:51.000Z,286.15
2023-05-14T07:23:57.000Z,286.21
2023-05-14T07:25:24.000Z,286.34
2023-05-14T07:27:30.000Z,286.46
2023-05-14T07:30:22.000Z,286.65
2023-05-14T07:31:49.000Z,286.71
2023-05-14T07:33:55.000Z,286.9
2023-05-14T07:35:22.000Z,287.02
2023-05-14T07:37:28.000Z,286.96
2023-05-14T07:38:55.000Z,287.09
2023-05-14T07:41:01.000Z,287.15
2023-05-14T07:42:27.000Z,287.09
2023-05-14T07:44:40.000Z,286.9
2023-05-14T07:46:07.000Z,286.71
2023-05-14T07:48:13.000Z,286.52
2023-05-14T07:49:40.000Z,286.46
2023-05-14T07:51:46.000Z,286.52
2023-05-14T07:53:12.000Z,286.59
2023-05-14T07:55:18.000Z,286.65
2023-05-14T07:56:45.000Z,286.71
2023-05-14T07:58:51.000Z,286.65
2023-05-14T08:00:18.000Z,286.77
2023-05-14T08:02:24.000Z,286.9
2023-05-14T08:03:50.000Z,287.15
2023-05-14T08:05:57.000Z,287.15
2023-05-14T08:08:48.000Z,286.96
2023-05-14T08:10:15.000Z,286.9
2023-05-14T08:12:21.000Z,286.9
2023-05-14T08:13:47.000Z,287.09
2023-05-14T08:15:53.000Z,287.34
2023-05-14T08:17:20.000Z,287.4
2023-05-14T08:19:26.000Z,287.46
2023-05-14T08:20:53.000Z,287.46
2023-05-14T08:22:59.000Z,287.77
2023-05-14T08:24:25.000Z,287.84
2023-05-14T08:26:32.000Z,287.9
2023-05-14T08:27:58.000Z,287.77
2023-05-14T08:30:04.000Z,288.09
2023-05-14T08:31:31.000Z,288.15
2023-05-14T08:33:37.000Z,288.21
2023-05-14T08:35:04.000Z,288.21
2023-05-14T08:37:10.000Z,288.21
2023-05-14T08:38:36.000Z,288.27
2023-05-14T08:40:42.000Z,288.52
2023-05-14T08:42:09.000Z,288.71
2023-05-14T08:44:15.000Z,288.84
2023-05-14T08:47:06.000Z,288.9
2023-05-14T08:48:33.000Z,288.71
2023-05-14T08:50:39.000Z,288.65
2023-05-14T08:52:06.000Z,288.65
2023-05-14T08:54:12.000Z,288.59
2023-05-14T08:55:38.000Z,288.59
2023-05-14T08:57:44.000Z,288.65
2023-05-14T08:59:11.000Z,288.59
2023-05-14T09:01:17.000Z,288.65
2023-05-14T09:02:44.000Z,288.77
2023-05-14T09:04:50.000Z,289.02
2023-05-14T09:06:16.000Z,289.09
2023-05-14T09:08:23.000Z,289.15
2023-05-14T09:09:49.000Z,289.34
2023-05-14T09:11:55.000Z,289.27
2023-05-14T09:13:22.000Z,289.59
2023-05-14T09:15:30.000Z,289.52
2023-05-14T09:16:56.000Z,289.46
2023-05-14T09:19:03.000Z,289.52
2023-05-14T09:20:29.000Z,289.65
2023-05-14T09:22:36.000Z,289.71
2023-05-14T09:25:27.000Z,289.59
2023-05-14T09:26:53.000Z,289.59
2023-05-14T09:28:59.000Z,289.9
2023-05-14T09:30:26.000Z,289.84
2023-05-14T09:32:32.000Z,290.02
2023-05-14T09:33:59.000Z,290.15
2023-05-14T09:36:05.000Z,290.15
2023-05-14T09:37:31.000Z,290.09
2023-05-14T09:39:37.000Z,290.09
2023-05-14T09:41:04.000Z,290.27
2023-05-14T09:43:10.000Z,290.52
2023-05-14T09:44:37.000Z,290.65
2023-05-14T09:46:43.000Z,290.52
2023-05-14T09:48:09.000Z,290.65
2023-05-14T09:50:15.000Z,290.65
2023-05-14T09:51:42.000Z,290.77
2023-05-14T09:53:48.000Z,290.52
2023-05-14T09:55:15.000Z,290.46
2023-05-14T09:57:21.000Z,290.4
2023-05-14T09:58:47.000Z,290.65
2023-05-14T10:00:53.000Z,290.96
2023-05-14T10:03:45.000Z,290.52
2023-05-14T10:05:11.000Z,290.59
2023-05-14T10:07:18.000Z,290.84
2023-05-14T10:08:44.000Z,290.9
2023-05-14T10:10:50.000Z,290.96
2023-05-14T10:12:17.000Z,290.9
2023-05-14T10:14:23.000Z,290.9
2023-05-14T10:15:49.000Z,291.09
2023-05-14T10:17:55.000Z,291.15
2023-05-14T10:19:22.000Z,291.27
2023-05-14T10:21:28.000Z,291.34
2023-05-14T10:22:55.000Z,291.15
2023-05-14T10:25:01.000Z,291.52
2023-05-14T10:26:28.000Z,291.52
2023-05-14T10:28:34.000Z,291.27
2023-05-14T10:30:00.000Z,291.34
2023-05-14T10:32:06.000Z,291.46
2023-05-14T10:33:33.000Z,291.46
2023-05-14T10:35:39.000Z,291.65
2023-05-14T10:37:05.000Z,291.71
2023-05-14T10:39:12.000Z,291.52
2023-05-14T10:42:03.000Z,291.4
2023-05-14T10:43:29.000Z,291.34
2023-05-14T10:45:35.000Z,291.46
2023-05-14T10:47:02.000Z,291.46
2023-05-14T10:49:08.000Z,291.52
2023-05-14T10:50:35.000Z,291.71
2023-05-14T10:52:41.000Z,291.59
2023-05-14T10:54:07.000Z,291.77
2023-05-14T10:56:13.000Z,291.71
2023-05-14T10:57:40.000Z,291.84
2023-05-14T10:59:46.000Z,291.9
2023-05-14T11:01:12.000Z,291.84
2023-05-14T11:03:19.000Z,291.96
2023-05-14T11:04:45.000Z,292.27
2023-05-14T11:06:51.000Z,292.34
2023-05-14T11:08:18.000Z,292.4
2023-05-14T11:10:26.000Z,292.52
2023-05-14T11:11:53.000Z,292.59
2023-05-14T11:13:59.000Z,292.52
2023-05-14T11:15:25.000Z,292.59
2023-05-14T11:17:32.000Z,292.71
2023-05-14T11:20:23.000Z,292.46
2023-05-14T11:21:50.000Z,292.4
2023-05-14T11:23:56.000Z,292.65
2023-05-14T11:25:23.000Z,292.59
2023-05-14T11:27:29.000Z,292.21
2023-05-14T11:28:55.000Z,292.21
2023-05-14T11:31:01.000Z,292.21
2023-05-14T11:32:28.000Z,292.27
2023-05-14T11:34:34.000Z,292.21
2023-05-14T11:36:01.000Z,292.15
2023-05-14T11:38:07.000Z,292.09
2023-05-14T11:39:33.000Z,292.09
2023-05-14T11:41:39.000Z,292.09
2023-05-14T11:43:06.000Z,292.09
2023-05-14T11:45:12.000Z,292.21
2023-05-14T11:46:39.000Z,292.21
2023-05-14T11:48:45.000Z,292.21
2023-05-14T11:50:11.000Z,292.27
2023-05-14T11:52:17.000Z,292.09
2023-05-14T11:53:44.000Z,292.09
2023-05-14T11:55:50.000Z,292.27
2023-05-14T11:58:41.000Z,292.46
2023-05-14T12:00:08.000Z,292.4
2023-05-14T12:02:14.000Z,292.59
2023-05-14T12:03:40.000Z,292.71
2023-05-14T12:05:47.000Z,292.9
2023-05-14T12:07:13.000Z,292.9
2023-05-14T12:09:19.000Z,293.09
2023-05-14T12:10:46.000Z,293.46
2023-05-14T12:12:52.000Z,293.71
2023-05-14T12:14:19.000Z,293.96
2023-05-14T12:16:25.000Z,293.46
2023-05-14T12:17:51.000Z,293.21
2023-05-14T12:19:58.000Z,293.52
2023-05-14T12:21:24.000Z,293.77
2023-05-14T12:23:30.000Z,293.46
2023-05-14T12:24:57.000Z,292.9
2023-05-14T12:27:03.000Z,291.84
2023-05-14T12:28:30.000Z,291.4
2023-05-14T12:30:36.000Z,291.59
2023-05-14T12:32:03.000Z,291.52
2023-05-14T12:34:09.000Z,291.4
2023-05-14T12:37:00.000Z,290.77
2023-05-14T12:38:26.000Z,290.59
2023-05-14T12:40:33.000Z,290.21
2023-05-14T12:41:59.000Z,289.52
2023-05-14T12:44:05.000Z,288.27
2023-05-14T12:45:32.000Z,288.15
2023-05-14T12:47:38.000Z,288.21
2023-05-14T12:49:05.000Z,288.27
2023-05-14T12:51:11.000Z,288.65
2023-05-14T12:52:37.000Z,288.46
2023-05-14T12:54:44.000Z,288.65
2023-05-14T12:56:10.000Z,288.46
2023-05-14T12:58:17.000Z,288.59
2023-05-14T12:59:43.000Z,288.59
2023-05-14T13:01:49.000Z,288.27
2023-05-14T13:03:16.000Z,288.15
2023-05-14T13:05:22.000Z,288.27
2023-05-14T13:06:49.000Z,288.15
2023-05-14T13:08:55.000Z,288.02
2023-05-14T13:10:21.000Z,288.21
2023-05-14T13:12:28.000Z,288.15
2023-05-14T13:15:20.000Z,288.52
2023-05-14T13:16:47.000Z,288.59
2023-05-14T13:18:53.000Z,288.46
2023-05-14T13:20:19.000Z,288.46
2023-05-14T13:22:25.000Z,288.59
2023-05-14T13:23:52.000Z,288.77
2023-05-14T13:25:58.000Z,288.96
2023-05-14T13:27:25.000Z,288.96
2023-05-14T13:29:31.000Z,289.02
2023-05-14T13:30:57.000Z,288.9
2023-05-14T13:33:03.000Z,289.02
2023-05-14T13:34:30.000Z,289.09
2023-05-14T13:36:36.000Z,289.34
2023-05-14T13:38:03.000Z,289.4
2023-05-14T13:40:09.000Z,289.71
2023-05-14T13:41:35.000Z,289.9
2023-05-14T13:43:42.000Z,290.27
2023-05-14T13:45:08.000Z,290.09
2023-05-14T13:47:14.000Z,289.77
2023-05-14T13:48:41.000Z,289.77
2023-05-14T13:50:47.000Z,289.9
2023-05-14T13:53:38.000Z,290.27
2023-05-14T13:55:05.000Z,290.34
2023-05-14T13:57:11.000Z,290.59
2023-05-14T13:58:37.000Z,290.52
2023-05-14T14:00:43.000Z,290.4
2023-05-14T14:02:10.000Z,290.4
2023-05-14T14:04:16.000Z,290.65
2023-05-14T14:05:42.000Z,290.52
2023-05-14T14:07:49.000Z,290.65
2023-05-14T14:09:19.000Z,291.02
2023-05-14T14:11:25.000Z,291.27
2023-05-14T14:12:51.000Z,291.4
2023-05-14T14:14:58.000Z,291.27
2023-05-14T14:16:24.000Z,291.15
2023-05-14T14:18:30.000Z,291.52
2023-05-14T14:19:57.000Z,291.52
2023-05-14T14:22:03.000Z,291.52
2023-05-14T14:23:30.000Z,291.52
2023-05-14T14:25:36.000Z,291.52
2023-05-14T14:27:03.000Z,291.4
2023-05-14T14:29:09.000Z,291.46
2023-05-14T14:32:00.000Z,291.71
2023-05-14T14:33:27.000Z,291.65
2023-05-14T14:35:33.000Z,291.77
2023-05-14T14:36:59.000Z,291.77
2023-05-14T14:39:05.000Z,292.09
2023-05-14T14:40:32.000Z,292.4
2023-05-14T14:42:38.000Z,292.59
2023-05-14T14:44:04.000Z,292.46
2023-05-14T14:46:11.000Z,292.15
2023-05-14T14:47:37.000Z,292.52
2023-05-14T14:49:44.000Z,292.46
2023-05-14T14:51:10.000Z,292.65
2023-05-14T14:53:16.000Z,292.77
2023-05-14T14:54:43.000Z,292.96
2023-05-14T14:56:49.000Z,292.84
2023-05-14T14:58:16.000Z,292.77
2023-05-14T15:00:22.000Z,292.96
2023-05-14T15:01:48.000Z,293.15
2023-05-14T15:03:54.000Z,293.21
2023-05-14T15:05:21.000Z,293.34
2023-05-14T15:07:28.000Z,293.34
2023-05-14T15:10:19.000Z,293.02
2023-05-14T15:11:45.000Z,293.09
2023-05-14T15:13:51.000Z,293.46
2023-05-14T15:15:18.000Z,293.02
2023-05-14T15:17:24.000Z,293.52
2023-05-14T15:18:51.000Z,293.52
2023-05-14T15:20:57.000Z,293.59
2023-05-14T15:22:23.000Z,293.52
2023-05-14T15:24:30.000Z,293.09
2023-05-14T15:25:56.000Z,292.96
2023-05-14T15:28:02.000Z,293.02
2023-05-14T15:29:29.000Z,293.15
2023-05-14T15:31:35.000Z,293.02
2023-05-14T15:33:02.000Z,293.02
2023-05-14T15:35:08.000Z,293.21
2023-05-14T15:36:34.000Z,293.4
2023-05-14T15:38:41.000Z,292.77
2023-05-14T15:40:07.000Z,292.46
2023-05-14T15:42:13.000Z,292.34
2023-05-14T15:43:40.000Z,291.9
2023-05-14T15:45:46.000Z,291.59
2023-05-14T15:48:37.000Z,291.59
2023-05-14T15:50:04.000Z,291.84
2023-05-14T15:52:10.000Z,291.9
2023-05-14T15:53:37.000Z,291.84
2023-05-14T15:55:43.000Z,291.96
2023-05-14T15:57:10.000Z,292.4
2023-05-14T15:59:16.000Z,292.52
2023-05-14T16:00:42.000Z,292.34
2023-05-14T16:02:48.000Z,292.02
2023-05-14T16:04:15.000Z,292.09
2023-05-14T16:06:21.000Z,292.21
2023-05-14T16:07:48.000Z,292.27
2023-05-14T16:09:54.000Z,292.52
2023-05-14T16:11:21.000Z,292.27
2023-05-14T16:13:27.000Z,292.02
2023-05-14T16:14:53.000Z,291.59
2023-05-14T16:16:59.000Z,291.27
2023-05-14T16:18:26.000Z,291.59
2023-05-14T16:20:32.000Z,291.9
2023-05-14T16:21:59.000Z,292.02
2023-05-14T16:24:05.000Z,292.46
2023-05-14T16:26:56.000Z,292.34
2023-05-14T16:28:23.000Z,292.21
2023-05-14T16:30:29.000Z,292.21
2023-05-14T16:31:55.000Z,292.34
2023-05-14T16:34:02.000Z,292.4
2023-05-14T16:35:28.000Z,292.21
2023-05-14T16:37:34.000Z,292.71
2023-05-14T16:39:01.000Z,292.65
2023-05-14T16:41:12.000Z,292.65
2023-05-14T16:42:38.000Z,292.84
2023-05-14T16:44:45.000Z,293.02
2023-05-14T16:46:11.000Z,292.96
2023-05-14T16:48:17.000Z,292.96
2023-05-14T16:49:44.000Z,292.65
2023-05-14T16:51:50.000Z,292.71
2023-05-14T16:53:17.000Z,292.77
2023-05-14T16:55:23.000Z,292.46
2023-05-14T16:56:50.000Z,292.65
2023-05-14T16:58:56.000Z,292.59
2023-05-14T17:00:22.000Z,292.4
2023-05-14T17:02:28.000Z,291.84
2023-05-14T17:05:20.000Z,292.02
2023-05-14T17:06:47.000Z,291.59
2023-05-14T17:08:53.000Z,291.71
2023-05-14T17:10:20.000Z,291.77
2023-05-14T17:12:26.000Z,291.52
2023-05-14T17:13:52.000Z,291.65
2023-05-14T17:15:59.000Z,291.4
2023-05-14T17:17:25.000Z,291.4
2023-05-14T17:19:32.000Z,291.27
2023-05-14T17:20:58.000Z,291.15
2023-05-14T17:23:04.000Z,291.02
2023-05-14T17:24:31.000Z,290.84
2023-05-14T17:26:37.000Z,290.84
2023-05-14T17:28:04.000Z,290.46
2023-05-14T17:30:10.000Z,290.27
2023-05-14T17:31:36.000Z,290.02
2023-05-14T17:33:43.000Z,289.96
2023-05-14T17:35:09.000Z,289.46
2023-05-14T17:37:15.000Z,289.34
2023-05-14T17:38:42.000Z,289.46
2023-05-14T17:40:48.000Z,289.34
2023-05-14T17:43:39.000Z,289.34
2023-05-14T17:45:06.000Z,289.21
2023-05-14T17:47:12.000Z,289.15
2023-05-14T17:48:39.000Z,289.02
2023-05-14T17:50:45.000Z,289.27
2023-05-14T17:52:11.000Z,289.27
2023-05-14T17:54:18.000Z,289.15
2023-05-14T17:55:44.000Z,289.09
2023-05-14T17:57:50.000Z,288.9
2023-05-14T17:59:17.000Z,288.84
2023-05-14T18:01:23.000Z,288.9
2023-05-14T18:02:49.000Z,288.96
2023-05-14T18:04:56.000Z,288.77
2023-05-14T18:06:22.000Z,288.77
2023-05-14T18:08:28.000Z,288.46
2023-05-14T18:09:55.000Z,288.34
2023-05-14T18:12:01.000Z,288.4
2023-05-14T18:13:27.000Z,288.27
2023-05-14T18:15:34.000Z,288.27
2023-05-14T18:17:00.000Z,288.15
2023-05-14T18:19:07.000Z,288.02
2023-05-14T18:21:59.000Z,288.02
2023-05-14T18:23:25.000Z,288.15
2023-05-14T18:25:31.000Z,288.09
2023-05-14T18:26:58.000Z,287.9
2023-05-14T18:29:04.000Z,287.71
2023-05-14T18:30:30.000Z,287.59
2023-05-14T18:32:37.000Z,287.59
2023-05-14T18:34:03.000Z,287.4
2023-05-14T18:36:09.000Z,287.34
2023-05-14T18:37:36.000Z,287.21
2023-05-14T18:39:42.000Z,287.02
2023-05-14T18:41:08.000Z,286.96
2023-05-14T18:43:14.000Z,286.9
2023-05-14T18:44:41.000Z,286.84
2023-05-14T18:46:47.000Z,286.84
2023-05-14T18:48:14.000Z,286.71
2023-05-14T18:50:20.000Z,286.59
2023-05-14T18:51:46.000Z,286.52
2023-05-14T18:53:53.000Z,286.34
2023-05-14T18:55:19.000Z,286.21
2023-05-14T18:57:25.000Z,286.21
2023-05-14T19:00:17.000Z,286.21
2023-05-14T19:01:43.000Z,286.15
2023-05-14T19:03:50.000Z,286.02
2023-05-14T19:05:17.000Z,285.96
2023-05-14T19:07:23.000Z,285.9
2023-05-14T19:08:49.000Z,285.84
2023-05-14T19:10:56.000Z,285.52
2023-05-14T19:12:22.000Z,285.46
2023-05-14T19:14:29.000Z,285.4
2023-05-14T19:15:55.000Z,285.27
2023-05-14T19:18:01.000Z,285.15
2023-05-14T19:19:28.000Z,285.15
2023-05-14T19:21:34.000Z,285.09
2023-05-14T19:23:00.000Z,285.02
2023-05-14T19:25:06.000Z,284.96
2023-05-14T19:26:33.000Z,284.96
2023-05-14T19:28:39.000Z,284.84
2023-05-14T19:30:06.000Z,284.77
2023-05-14T19:32:12.000Z,284.71
2023-05-14T19:33:38.000Z,284.71
2023-05-14T19:35:44.000Z,284.71
2023-05-14T19:38:35.000Z,284.71
2023-05-14T19:40:02.000Z,284.65
2023-05-14T19:42:08.000Z,284.52
2023-05-14T19:43:35.000Z,284.4
2023-05-14T19:45:41.000Z,284.46
2023-05-14T19:47:07.000Z,284.52
2023-05-14T19:49:13.000Z,284.4
2023-05-14T19:50:40.000Z,284.4
2023-05-14T19:52:46.000Z,284.34
2023-05-14T19:54:12.000Z,284.27
2023-05-14T19:56:19.000Z,284.15
2023-05-14T19:57:45.000Z,284.02
2023-05-14T19:59:51.000Z,283.96
2023-05-14T20:01:18.000Z,283.9
2023-05-14T20:03:24.000Z,283.77
2023-05-14T20:04:51.000Z,283.84
2023-05-14T20:06:57.000Z,283.9
2023-05-14T20:08:24.000Z,283.84
2023-05-14T20:10:30.000Z,283.9
2023-05-14T20:11:56.000Z,283.84
2023-05-14T20:14:02.000Z,283.84
2023-05-14T20:16:53.000Z,283.77
2023-05-14T20:18:20.000Z,283.96
2023-05-14T20:20:26.000Z,283.96
2023-05-14T20:21:57.000Z,283.84
2023-05-14T20:24:03.000Z,283.59
2023-05-14T20:25:30.000Z,283.52
2023-05-14T20:27:36.000Z,283.59
2023-05-14T20:29:03.000Z,283.52
2023-05-14T20:31:09.000Z,283.46
2023-05-14T20:32:35.000Z,283.46
2023-05-14T20:34:42.000Z,283.46
2023-05-14T20:36:08.000Z,283.46
2023-05-14T20:38:14.000Z,283.34
2023-05-14T20:39:41.000Z,283.27
2023-05-14T20:41:47.000Z,283.21
2023-05-14T20:43:14.000Z,283.15
2023-05-14T20:45:20.000Z,283.09
2023-05-14T20:46:47.000Z,283.09
2023-05-14T20:48:53.000Z,282.9
2023-05-14T20:50:20.000Z,282.84
2023-05-14T20:52:26.000Z,282.65
2023-05-14T20:55:18.000Z,282.71
2023-05-14T20:56:44.000Z,282.77
2023-05-14T20:58:50.000Z,282.77
2023-05-14T21:00:17.000Z,282.71
2023-05-14T21:02:23.000Z,282.65
2023-05-14T21:03:50.000Z,282.52
2023-05-14T21:05:57.000Z,282.46
2023-05-14T21:07:23.000Z,282.34
2023-05-14T21:09:31.000Z,282.27
2023-05-14T21:10:57.000Z,282.27
2023-05-14T21:13:03.000Z,282.27
2023-05-14T21:14:30.000Z,282.34
2023-05-14T21:16:36.000Z,282.4
2023-05-14T21:18:03.000Z,282.52
2023-05-14T21:20:09.000Z,282.52
2023-05-14T21:21:35.000Z,282.52
2023-05-14T21:23:41.000Z,282.4
2023-05-14T21:25:08.000Z,282.34
2023-05-14T21:27:14.000Z,282.34
2023-05-14T21:28:41.000Z,282.27
2023-05-14T21:30:47.000Z,282.09
2023-05-14T21:33:38.000Z,282.02
2023-05-14T21:35:05.000Z,281.96
2023-05-14T21:37:11.000Z,282.02
2023-05-14T21:38:37.000Z,282.02
2023-05-14T21:40:44.000Z,281.96
2023-05-14T21:42:10.000Z,281.9
2023-05-14T21:44:16.000Z,281.96
2023-05-14T21:45:43.000Z,281.9
2023-05-14T21:47:49.000Z,281.96
2023-05-14T21:49:16.000Z,281.96
2023-05-14T21:51:22.000Z,282.09
2023-05-14T21:52:48.000Z,282.09
2023-05-14T21:54:54.000Z,281.96
2023-05-14T21:56:21.000Z,281.9
2023-05-14T21:58:27.000Z,281.96
2023-05-14T21:59:53.000Z,281.84
2023-05-14T22:03:29.000Z,281.77
2023-05-14T22:05:35.000Z,281.77
2023-05-14T22:07:02.000Z,281.71
2023-05-14T22:09:08.000Z,281.77
2023-05-14T22:11:59.000Z,281.65
2023-05-14T22:13:26.000Z,281.65
2023-05-14T22:15:32.000Z,281.59
2023-05-14T22:16:59.000Z,281.59
2023-05-14T22:19:05.000Z,281.59
2023-05-14T22:20:32.000Z,281.52
2023-05-14T22:22:38.000Z,281.46
2023-05-14T22:24:05.000Z,281.52
2023-05-14T22:26:11.000Z,281.59
2023-05-14T22:27:37.000Z,281.52
2023-05-14T22:29:43.000Z,281.52
2023-05-14T22:31:10.000Z,281.46
2023-05-14T22:33:16.000Z,281.46
2023-05-14T22:34:43.000Z,281.4
2023-05-14T22:36:49.000Z,281.4
2023-05-14T22:38:15.000Z,281.34
2023-05-14T22:40:21.000Z,281.21
2023-05-14T22:41:48.000Z,281.15
2023-05-14T22:43:54.000Z,281.02
2023-05-14T22:45:21.000Z,281.02
2023-05-14T22:47:27.000Z,281.15
2023-05-14T22:50:19.000Z,281.21
2023-05-14T22:51:45.000Z,281.09
2023-05-14T22:53:51.000Z,281.09